sensor_id;sensor_type;location;lat;lon;timestamp;P1;durP1;ratioP1;P2;durP2;ratioP2
62927;SDS011;51070;52.236;-0.892;2023-03-20T00:01:21;5.70;;;1.40;;
62927;SDS011;51070;52.236;-0.892;2023-03-20T00:03:48;7.70;;;2.30;;
62927;SDS011;51070;52.236;-0.892;2023-03-20T00:06:25;6.00;;;2.00;;
62927;SDS011;51070;52.236;-0.892;2023-03-20T00:08:56;7.30;;;2.60;;
62927;SDS011;51070;52.236;-0.892;2023-03-20T00:13:53;8.10;;;2.00;;
62927;SDS011;51070;52.236;-0.892;2023-03-20T00:16:21;7.90;;;1.90;;
62927;SDS011;51070;52.236;-0.892;2023-03-20T00:18:49;10.20;;;1.80;;
62927;SDS011;51070;52.236;-0.892;2023-03-20T00:21:17;3.20;;;1.50;;
62927;SDS011;51070;52.236;-0.892;2023-03-20T00:23:43;9.10;;;1.90;;
62927;SDS011;51070;52.236;-0.892;2023-03-20T00:26:13;7.50;;;2.40;;
62927;SDS011;51070;52.236;-0.892;2023-03-20T00:28:43;5.50;;;1.30;;
62927;SDS011;51070;52.236;-0.892;2023-03-20T00:31:17;3.50;;;2.00;;
62927;SDS011;51070;52.236;-0.892;2023-03-20T00:33:48;4.90;;;2.00;;
62927;SDS011;51070;52.236;-0.892;2023-03-20T00:36:14;9.20;;;1.60;;
62927;SDS011;51070;52.236;-0.892;2023-03-20T00:38:39;11.90;;;2.20;;
62927;SDS011;51070;52.236;-0.892;2023-03-20T00:41:11;3.40;;;1.60;;
62927;SDS011;51070;52.236;-0.892;2023-03-20T00:43:42;11.90;;;2.30;;
62927;SDS011;51070;52.236;-0.892;2023-03-20T00:46:11;5.30;;;1.70;;
62927;SDS011;51070;52.236;-0.892;2023-03-20T00:48:38;5.70;;;1.50;;
62927;SDS011;51070;52.236;-0.892;2023-03-20T00:51:06;7.90;;;2.10;;
62927;SDS011;51070;52.236;-0.892;2023-03-20T00:53:32;4.80;;;1.80;;
62927;SDS011;51070;52.236;-0.892;2023-03-20T00:55:57;4.50;;;1.60;;
62927;SDS011;51070;52.236;-0.892;2023-03-20T00:58:23;7.40;;;1.70;;
62927;SDS011;51070;52.236;-0.892;2023-03-20T01:00:49;4.70;;;1.80;;
62927;SDS011;51070;52.236;-0.892;2023-03-20T01:03:16;8.70;;;2.30;;
62927;SDS011;51070;52.236;-0.892;2023-03-20T01:05:43;5.40;;;1.90;;
62927;SDS011;51070;52.236;-0.892;2023-03-20T01:10:46;5.20;;;1.80;;
62927;SDS011;51070;52.236;-0.892;2023-03-20T01:13:19;4.00;;;2.00;;
62927;SDS011;51070;52.236;-0.892;2023-03-20T01:15:48;4.60;;;1.80;;
62927;SDS011;51070;52.236;-0.892;2023-03-20T01:18:15;6.90;;;2.10;;
62927;SDS011;51070;52.236;-0.892;2023-03-20T01:20:41;7.70;;;2.00;;
62927;SDS011;51070;52.236;-0.892;2023-03-20T01:23:07;6.40;;;2.00;;
62927;SDS011;51070;52.236;-0.892;2023-03-20T01:25:34;7.00;;;1.70;;
62927;SDS011;51070;52.236;-0.892;2023-03-20T01:28:00;5.00;;;1.70;;
62927;SDS011;51070;52.236;-0.892;2023-03-20T01:30:27;4.90;;;1.30;;
62927;SDS011;51070;52.236;-0.892;2023-03-20T01:32:55;5.50;;;1.50;;
62927;SDS011;51070;52.236;-0.892;2023-03-20T01:35:24;6.90;;;2.10;;
62927;SDS011;51070;52.236;-0.892;2023-03-20T01:37:52;4.70;;;1.60;;
62927;SDS011;51070;52.236;-0.892;2023-03-20T01:42:58;7.90;;;1.60;;
62927;SDS011;51070;52.236;-0.892;2023-03-20T01:45:28;6.10;;;1.60;;
62927;SDS011;51070;52.236;-0.892;2023-03-20T01:47:58;5.50;;;1.60;;
62927;SDS011;51070;52.236;-0.892;2023-03-20T01:50:30;4.60;;;1.50;;
62927;SDS011;51070;52.236;-0.892;2023-03-20T01:52:59;5.20;;;1.90;;
62927;SDS011;51070;52.236;-0.892;2023-03-20T01:55:26;9.40;;;3.50;;
62927;SDS011;51070;52.236;-0.892;2023-03-20T01:57:53;4.80;;;1.60;;
62927;SDS011;51070;52.236;-0.892;2023-03-20T02:00:21;7.10;;;1.80;;
62927;SDS011;51070;52.236;-0.892;2023-03-20T02:02:47;5.10;;;1.50;;
62927;SDS011;51070;52.236;-0.892;2023-03-20T02:05:14;7.00;;;1.80;;
62927;SDS011;51070;52.236;-0.892;2023-03-20T02:07:44;6.90;;;2.00;;
62927;SDS011;51070;52.236;-0.892;2023-03-20T02:10:14;4.40;;;1.20;;
62927;SDS011;51070;52.236;-0.892;2023-03-20T02:12:41;7.00;;;1.30;;
62927;SDS011;51070;52.236;-0.892;2023-03-20T02:15:08;5.00;;;1.60;;
62927;SDS011;51070;52.236;-0.892;2023-03-20T02:17:35;4.70;;;1.70;;
62927;SDS011;51070;52.236;-0.892;2023-03-20T02:25:47;9.50;;;2.10;;
62927;SDS011;51070;52.236;-0.892;2023-03-20T02:28:54;4.50;;;1.50;;
62927;SDS011;51070;52.236;-0.892;2023-03-20T02:55:49;7.10;;;1.80;;
62927;SDS011;51070;52.236;-0.892;2023-03-20T03:03:27;6.30;;;2.40;;
62927;SDS011;51070;52.236;-0.892;2023-03-20T03:06:00;8.40;;;1.90;;
62927;SDS011;51070;52.236;-0.892;2023-03-20T03:08:48;14.00;;;3.40;;
62927;SDS011;51070;52.236;-0.892;2023-03-20T03:11:16;5.00;;;1.90;;
62927;SDS011;51070;52.236;-0.892;2023-03-20T03:13:46;5.90;;;1.70;;
62927;SDS011;51070;52.236;-0.892;2023-03-20T03:16:16;8.90;;;1.90;;
62927;SDS011;51070;52.236;-0.892;2023-03-20T03:18:45;6.80;;;1.90;;
62927;SDS011;51070;52.236;-0.892;2023-03-20T03:21:15;6.70;;;1.80;;
62927;SDS011;51070;52.236;-0.892;2023-03-20T03:23:44;8.10;;;1.50;;
62927;SDS011;51070;52.236;-0.892;2023-03-20T03:26:13;4.10;;;1.40;;
62927;SDS011;51070;52.236;-0.892;2023-03-20T03:28:45;21.90;;;3.20;;
62927;SDS011;51070;52.236;-0.892;2023-03-20T03:31:15;5.80;;;1.40;;
62927;SDS011;51070;52.236;-0.892;2023-03-20T03:33:49;5.80;;;1.50;;
62927;SDS011;51070;52.236;-0.892;2023-03-20T03:39:16;6.40;;;2.30;;
62927;SDS011;51070;52.236;-0.892;2023-03-20T03:42:07;5.20;;;1.80;;
62927;SDS011;51070;52.236;-0.892;2023-03-20T03:44:45;7.10;;;2.00;;
62927;SDS011;51070;52.236;-0.892;2023-03-20T03:47:17;4.70;;;1.80;;
62927;SDS011;51070;52.236;-0.892;2023-03-20T03:49:48;7.60;;;2.30;;
62927;SDS011;51070;52.236;-0.892;2023-03-20T03:52:21;6.40;;;2.10;;
62927;SDS011;51070;52.236;-0.892;2023-03-20T03:57:28;4.50;;;1.60;;
62927;SDS011;51070;52.236;-0.892;2023-03-20T03:59:59;6.10;;;1.80;;
62927;SDS011;51070;52.236;-0.892;2023-03-20T04:02:28;6.60;;;1.70;;
62927;SDS011;51070;52.236;-0.892;2023-03-20T04:04:55;5.10;;;1.70;;
62927;SDS011;51070;52.236;-0.892;2023-03-20T04:07:20;9.90;;;1.50;;
62927;SDS011;51070;52.236;-0.892;2023-03-20T04:09:49;7.50;;;1.70;;
62927;SDS011;51070;52.236;-0.892;2023-03-20T04:15:04;7.40;;;2.10;;
62927;SDS011;51070;52.236;-0.892;2023-03-20T04:17:30;7.20;;;1.50;;
62927;SDS011;51070;52.236;-0.892;2023-03-20T04:19:56;5.60;;;1.70;;
62927;SDS011;51070;52.236;-0.892;2023-03-20T04:22:22;6.10;;;2.30;;
62927;SDS011;51070;52.236;-0.892;2023-03-20T04:24:48;9.80;;;1.50;;
62927;SDS011;51070;52.236;-0.892;2023-03-20T04:27:13;7.00;;;2.20;;
62927;SDS011;51070;52.236;-0.892;2023-03-20T04:29:39;8.60;;;2.40;;
62927;SDS011;51070;52.236;-0.892;2023-03-20T04:32:05;5.90;;;1.60;;
62927;SDS011;51070;52.236;-0.892;2023-03-20T04:34:31;6.20;;;1.60;;
62927;SDS011;51070;52.236;-0.892;2023-03-20T04:36:57;7.30;;;1.80;;
62927;SDS011;51070;52.236;-0.892;2023-03-20T04:39:24;4.90;;;1.30;;
62927;SDS011;51070;52.236;-0.892;2023-03-20T04:41:50;7.50;;;2.10;;
62927;SDS011;51070;52.236;-0.892;2023-03-20T04:44:16;9.10;;;2.00;;
62927;SDS011;51070;52.236;-0.892;2023-03-20T04:46:41;6.50;;;1.90;;
62927;SDS011;51070;52.236;-0.892;2023-03-20T04:49:06;4.10;;;1.60;;
62927;SDS011;51070;52.236;-0.892;2023-03-20T04:51:32;8.40;;;1.80;;
62927;SDS011;51070;52.236;-0.892;2023-03-20T04:53:57;10.00;;;2.00;;
62927;SDS011;51070;52.236;-0.892;2023-03-20T04:56:22;8.00;;;2.20;;
62927;SDS011;51070;52.236;-0.892;2023-03-20T04:58:48;3.80;;;1.50;;
62927;SDS011;51070;52.236;-0.892;2023-03-20T05:01:13;4.10;;;1.00;;
62927;SDS011;51070;52.236;-0.892;2023-03-20T05:03:39;7.80;;;2.00;;
62927;SDS011;51070;52.236;-0.892;2023-03-20T05:06:05;5.30;;;1.90;;
62927;SDS011;51070;52.236;-0.892;2023-03-20T05:08:31;6.20;;;2.10;;
62927;SDS011;51070;52.236;-0.892;2023-03-20T05:10:56;3.70;;;1.90;;
62927;SDS011;51070;52.236;-0.892;2023-03-20T05:13:21;9.30;;;2.00;;
62927;SDS011;51070;52.236;-0.892;2023-03-20T05:15:47;4.30;;;1.50;;
62927;SDS011;51070;52.236;-0.892;2023-03-20T05:18:12;11.50;;;2.60;;
62927;SDS011;51070;52.236;-0.892;2023-03-20T05:20:38;8.40;;;1.80;;
62927;SDS011;51070;52.236;-0.892;2023-03-20T05:23:03;9.90;;;2.10;;
62927;SDS011;51070;52.236;-0.892;2023-03-20T05:25:29;3.60;;;1.70;;
62927;SDS011;51070;52.236;-0.892;2023-03-20T05:27:55;10.60;;;2.40;;
62927;SDS011;51070;52.236;-0.892;2023-03-20T05:30:21;5.60;;;2.10;;
62927;SDS011;51070;52.236;-0.892;2023-03-20T05:32:49;6.00;;;1.60;;
62927;SDS011;51070;52.236;-0.892;2023-03-20T05:35:16;7.40;;;2.40;;
62927;SDS011;51070;52.236;-0.892;2023-03-20T05:37:43;8.80;;;2.10;;
62927;SDS011;51070;52.236;-0.892;2023-03-20T05:40:12;12.50;;;2.00;;
62927;SDS011;51070;52.236;-0.892;2023-03-20T05:42:40;5.70;;;2.10;;
62927;SDS011;51070;52.236;-0.892;2023-03-20T05:45:06;5.80;;;2.40;;
62927;SDS011;51070;52.236;-0.892;2023-03-20T05:47:33;6.50;;;2.00;;
62927;SDS011;51070;52.236;-0.892;2023-03-20T05:49:58;12.60;;;1.90;;
62927;SDS011;51070;52.236;-0.892;2023-03-20T05:52:24;10.10;;;2.30;;
62927;SDS011;51070;52.236;-0.892;2023-03-20T05:54:49;3.60;;;1.70;;
62927;SDS011;51070;52.236;-0.892;2023-03-20T05:57:15;7.50;;;2.40;;
62927;SDS011;51070;52.236;-0.892;2023-03-20T05:59:41;7.30;;;2.70;;
62927;SDS011;51070;52.236;-0.892;2023-03-20T06:02:08;8.20;;;2.00;;
62927;SDS011;51070;52.236;-0.892;2023-03-20T06:04:33;8.70;;;2.50;;
62927;SDS011;51070;52.236;-0.892;2023-03-20T06:07:01;4.70;;;1.90;;
62927;SDS011;51070;52.236;-0.892;2023-03-20T06:09:27;6.80;;;2.20;;
62927;SDS011;51070;52.236;-0.892;2023-03-20T06:11:53;4.50;;;1.70;;
62927;SDS011;51070;52.236;-0.892;2023-03-20T06:14:18;6.50;;;2.70;;
62927;SDS011;51070;52.236;-0.892;2023-03-20T06:16:43;7.90;;;2.00;;
62927;SDS011;51070;52.236;-0.892;2023-03-20T06:19:09;5.80;;;2.10;;
62927;SDS011;51070;52.236;-0.892;2023-03-20T06:21:34;6.80;;;2.30;;
62927;SDS011;51070;52.236;-0.892;2023-03-20T06:24:00;4.60;;;2.10;;
62927;SDS011;51070;52.236;-0.892;2023-03-20T06:26:25;5.30;;;1.80;;
62927;SDS011;51070;52.236;-0.892;2023-03-20T06:28:51;5.80;;;1.60;;
62927;SDS011;51070;52.236;-0.892;2023-03-20T06:31:16;8.30;;;2.00;;
62927;SDS011;51070;52.236;-0.892;2023-03-20T06:33:41;7.10;;;1.90;;
62927;SDS011;51070;52.236;-0.892;2023-03-20T06:36:07;15.10;;;2.50;;
62927;SDS011;51070;52.236;-0.892;2023-03-20T06:38:33;8.00;;;3.10;;
62927;SDS011;51070;52.236;-0.892;2023-03-20T06:40:58;8.10;;;2.30;;
62927;SDS011;51070;52.236;-0.892;2023-03-20T06:43:23;8.90;;;2.20;;
62927;SDS011;51070;52.236;-0.892;2023-03-20T06:45:49;8.10;;;2.40;;
62927;SDS011;51070;52.236;-0.892;2023-03-20T06:48:14;6.00;;;2.40;;
62927;SDS011;51070;52.236;-0.892;2023-03-20T06:50:46;7.10;;;2.30;;
62927;SDS011;51070;52.236;-0.892;2023-03-20T06:53:14;6.70;;;2.30;;
62927;SDS011;51070;52.236;-0.892;2023-03-20T06:55:41;7.20;;;2.00;;
62927;SDS011;51070;52.236;-0.892;2023-03-20T06:58:07;4.70;;;1.70;;
62927;SDS011;51070;52.236;-0.892;2023-03-20T07:00:32;10.50;;;2.10;;
62927;SDS011;51070;52.236;-0.892;2023-03-20T07:02:58;8.90;;;1.90;;
62927;SDS011;51070;52.236;-0.892;2023-03-20T07:05:24;7.50;;;1.90;;
62927;SDS011;51070;52.236;-0.892;2023-03-20T07:07:50;5.60;;;1.90;;
62927;SDS011;51070;52.236;-0.892;2023-03-20T07:10:16;6.70;;;2.10;;
62927;SDS011;51070;52.236;-0.892;2023-03-20T07:12:41;5.00;;;1.80;;
62927;SDS011;51070;52.236;-0.892;2023-03-20T07:15:08;7.70;;;1.90;;
62927;SDS011;51070;52.236;-0.892;2023-03-20T07:17:35;9.20;;;2.70;;
62927;SDS011;51070;52.236;-0.892;2023-03-20T07:20:01;3.10;;;1.70;;
62927;SDS011;51070;52.236;-0.892;2023-03-20T07:22:28;8.90;;;2.20;;
62927;SDS011;51070;52.236;-0.892;2023-03-20T07:24:54;13.50;;;2.60;;
62927;SDS011;51070;52.236;-0.892;2023-03-20T07:27:19;5.50;;;2.20;;
62927;SDS011;51070;52.236;-0.892;2023-03-20T07:29:45;6.30;;;1.80;;
62927;SDS011;51070;52.236;-0.892;2023-03-20T07:32:10;7.80;;;2.20;;
62927;SDS011;51070;52.236;-0.892;2023-03-20T07:34:36;9.10;;;2.30;;
62927;SDS011;51070;52.236;-0.892;2023-03-20T07:37:02;9.50;;;2.20;;
62927;SDS011;51070;52.236;-0.892;2023-03-20T07:39:28;4.00;;;1.80;;
62927;SDS011;51070;52.236;-0.892;2023-03-20T07:41:54;5.90;;;1.80;;
62927;SDS011;51070;52.236;-0.892;2023-03-20T07:44:19;8.40;;;2.40;;
62927;SDS011;51070;52.236;-0.892;2023-03-20T07:46:45;5.50;;;2.20;;
62927;SDS011;51070;52.236;-0.892;2023-03-20T07:49:14;8.10;;;2.40;;
62927;SDS011;51070;52.236;-0.892;2023-03-20T07:51:43;9.50;;;3.10;;
62927;SDS011;51070;52.236;-0.892;2023-03-20T07:54:09;7.40;;;2.70;;
62927;SDS011;51070;52.236;-0.892;2023-03-20T07:56:34;9.70;;;2.60;;
62927;SDS011;51070;52.236;-0.892;2023-03-20T07:58:59;7.20;;;2.40;;
62927;SDS011;51070;52.236;-0.892;2023-03-20T08:01:25;7.50;;;1.90;;
62927;SDS011;51070;52.236;-0.892;2023-03-20T08:03:50;10.40;;;2.60;;
62927;SDS011;51070;52.236;-0.892;2023-03-20T08:06:15;4.40;;;1.90;;
62927;SDS011;51070;52.236;-0.892;2023-03-20T08:08:41;5.80;;;1.50;;
62927;SDS011;51070;52.236;-0.892;2023-03-20T08:11:07;5.10;;;2.20;;
62927;SDS011;51070;52.236;-0.892;2023-03-20T08:13:32;5.00;;;2.40;;
62927;SDS011;51070;52.236;-0.892;2023-03-20T08:15:58;5.50;;;2.30;;
62927;SDS011;51070;52.236;-0.892;2023-03-20T08:18:23;6.00;;;2.40;;
62927;SDS011;51070;52.236;-0.892;2023-03-20T08:20:49;5.00;;;2.00;;
62927;SDS011;51070;52.236;-0.892;2023-03-20T08:23:17;4.90;;;2.00;;
62927;SDS011;51070;52.236;-0.892;2023-03-20T08:25:50;7.30;;;2.00;;
62927;SDS011;51070;52.236;-0.892;2023-03-20T08:28:16;4.20;;;2.10;;
62927;SDS011;51070;52.236;-0.892;2023-03-20T08:30:42;5.40;;;1.90;;
62927;SDS011;51070;52.236;-0.892;2023-03-20T08:33:08;2.50;;;1.40;;
62927;SDS011;51070;52.236;-0.892;2023-03-20T08:35:33;3.40;;;1.90;;
62927;SDS011;51070;52.236;-0.892;2023-03-20T08:37:59;3.70;;;1.50;;
62927;SDS011;51070;52.236;-0.892;2023-03-20T08:40:25;5.20;;;1.80;;
62927;SDS011;51070;52.236;-0.892;2023-03-20T08:42:51;2.90;;;1.50;;
62927;SDS011;51070;52.236;-0.892;2023-03-20T08:45:16;1.50;;;1.20;;
62927;SDS011;51070;52.236;-0.892;2023-03-20T08:47:42;3.90;;;1.50;;
62927;SDS011;51070;52.236;-0.892;2023-03-20T08:50:07;1.50;;;1.20;;
62927;SDS011;51070;52.236;-0.892;2023-03-20T08:52:34;2.50;;;1.50;;
62927;SDS011;51070;52.236;-0.892;2023-03-20T08:55:00;2.60;;;1.70;;
62927;SDS011;51070;52.236;-0.892;2023-03-20T08:57:26;3.80;;;1.00;;
62927;SDS011;51070;52.236;-0.892;2023-03-20T08:59:51;1.80;;;1.30;;
62927;SDS011;51070;52.236;-0.892;2023-03-20T09:02:16;1.60;;;1.30;;
62927;SDS011;51070;52.236;-0.892;2023-03-20T09:04:42;2.40;;;1.10;;
62927;SDS011;51070;52.236;-0.892;2023-03-20T09:07:07;4.50;;;1.20;;
62927;SDS011;51070;52.236;-0.892;2023-03-20T09:09:33;3.70;;;1.40;;
62927;SDS011;51070;52.236;-0.892;2023-03-20T09:11:58;1.30;;;1.10;;
62927;SDS011;51070;52.236;-0.892;2023-03-20T09:14:24;3.10;;;1.60;;
62927;SDS011;51070;52.236;-0.892;2023-03-20T09:16:51;1.90;;;1.00;;
62927;SDS011;51070;52.236;-0.892;2023-03-20T09:19:16;1.50;;;1.10;;
62927;SDS011;51070;52.236;-0.892;2023-03-20T09:21:43;3.90;;;1.80;;
62927;SDS011;51070;52.236;-0.892;2023-03-20T09:24:09;2.70;;;1.40;;
62927;SDS011;51070;52.236;-0.892;2023-03-20T09:26:36;3.50;;;1.40;;
62927;SDS011;51070;52.236;-0.892;2023-03-20T09:29:02;1.70;;;1.50;;
62927;SDS011;51070;52.236;-0.892;2023-03-20T09:31:28;3.30;;;1.20;;
62927;SDS011;51070;52.236;-0.892;2023-03-20T09:33:53;2.20;;;1.40;;
62927;SDS011;51070;52.236;-0.892;2023-03-20T09:36:19;1.90;;;1.20;;
62927;SDS011;51070;52.236;-0.892;2023-03-20T09:38:45;2.70;;;1.50;;
62927;SDS011;51070;52.236;-0.892;2023-03-20T09:41:20;1.70;;;1.30;;
62927;SDS011;51070;52.236;-0.892;2023-03-20T09:44:07;2.20;;;1.40;;
62927;SDS011;51070;52.236;-0.892;2023-03-20T09:46:42;1.80;;;1.60;;
62927;SDS011;51070;52.236;-0.892;2023-03-20T09:51:59;2.90;;;1.50;;
62927;SDS011;51070;52.236;-0.892;2023-03-20T09:54:28;2.60;;;1.50;;
62927;SDS011;51070;52.236;-0.892;2023-03-20T09:57:02;1.90;;;1.50;;
62927;SDS011;51070;52.236;-0.892;2023-03-20T09:59:29;2.30;;;1.40;;
62927;SDS011;51070;52.236;-0.892;2023-03-20T10:02:01;1.50;;;1.10;;
62927;SDS011;51070;52.236;-0.892;2023-03-20T10:04:32;2.40;;;1.30;;
62927;SDS011;51070;52.236;-0.892;2023-03-20T10:06:58;2.10;;;1.50;;
62927;SDS011;51070;52.236;-0.892;2023-03-20T10:09:30;1.60;;;0.90;;
62927;SDS011;51070;52.236;-0.892;2023-03-20T10:12:01;2.50;;;1.40;;
62927;SDS011;51070;52.236;-0.892;2023-03-20T10:15:00;2.10;;;1.20;;
62927;SDS011;51070;52.236;-0.892;2023-03-20T10:17:44;1.70;;;1.00;;
62927;SDS011;51070;52.236;-0.892;2023-03-20T10:25:42;1.60;;;1.20;;
62927;SDS011;51070;52.236;-0.892;2023-03-20T10:42:16;2.50;;;1.50;;
62927;SDS011;51070;52.236;-0.892;2023-03-20T10:44:55;2.60;;;1.40;;
62927;SDS011;51070;52.236;-0.892;2023-03-20T10:47:27;3.00;;;1.50;;
62927;SDS011;51070;52.236;-0.892;2023-03-20T10:49:57;3.00;;;1.70;;
62927;SDS011;51070;52.236;-0.892;2023-03-20T10:52:28;1.90;;;1.30;;
62927;SDS011;51070;52.236;-0.892;2023-03-20T10:54:59;3.60;;;2.00;;
62927;SDS011;51070;52.236;-0.892;2023-03-20T10:57:30;2.80;;;1.50;;
62927;SDS011;51070;52.236;-0.892;2023-03-20T11:00:00;6.00;;;1.80;;
62927;SDS011;51070;52.236;-0.892;2023-03-20T11:02:29;2.20;;;1.50;;
62927;SDS011;51070;52.236;-0.892;2023-03-20T11:04:59;2.40;;;1.50;;
62927;SDS011;51070;52.236;-0.892;2023-03-20T11:07:33;3.40;;;1.50;;
62927;SDS011;51070;52.236;-0.892;2023-03-20T11:12:34;1.90;;;1.60;;
62927;SDS011;51070;52.236;-0.892;2023-03-20T11:15:03;3.20;;;1.40;;
62927;SDS011;51070;52.236;-0.892;2023-03-20T11:17:39;2.70;;;1.70;;
62927;SDS011;51070;52.236;-0.892;2023-03-20T11:20:05;2.90;;;1.30;;
62927;SDS011;51070;52.236;-0.892;2023-03-20T11:22:32;1.90;;;1.40;;
62927;SDS011;51070;52.236;-0.892;2023-03-20T11:25:06;2.00;;;1.60;;
62927;SDS011;51070;52.236;-0.892;2023-03-20T11:27:46;2.30;;;1.30;;
62927;SDS011;51070;52.236;-0.892;2023-03-20T11:30:12;2.60;;;1.30;;
62927;SDS011;51070;52.236;-0.892;2023-03-20T11:32:47;1.40;;;1.30;;
62927;SDS011;51070;52.236;-0.892;2023-03-20T11:40:29;2.40;;;1.10;;
62927;SDS011;51070;52.236;-0.892;2023-03-20T11:43:01;3.80;;;1.40;;
62927;SDS011;51070;52.236;-0.892;2023-03-20T11:46:03;2.00;;;1.60;;
62927;SDS011;51070;52.236;-0.892;2023-03-20T11:48:37;1.50;;;1.40;;
62927;SDS011;51070;52.236;-0.892;2023-03-20T11:51:08;1.80;;;1.40;;
62927;SDS011;51070;52.236;-0.892;2023-03-20T11:53:39;1.70;;;1.20;;
62927;SDS011;51070;52.236;-0.892;2023-03-20T12:01:44;2.40;;;1.50;;
62927;SDS011;51070;52.236;-0.892;2023-03-20T12:04:34;2.50;;;1.30;;
62927;SDS011;51070;52.236;-0.892;2023-03-20T12:15:09;2.60;;;1.10;;
62927;SDS011;51070;52.236;-0.892;2023-03-20T12:23:12;1.10;;;0.60;;
62927;SDS011;51070;52.236;-0.892;2023-03-20T12:25:49;1.70;;;0.80;;
62927;SDS011;51070;52.236;-0.892;2023-03-20T12:28:24;1.10;;;0.80;;
62927;SDS011;51070;52.236;-0.892;2023-03-20T12:31:41;1.30;;;1.00;;
62927;SDS011;51070;52.236;-0.892;2023-03-20T12:36:57;2.00;;;0.90;;
62927;SDS011;51070;52.236;-0.892;2023-03-20T12:39:24;0.70;;;0.60;;
62927;SDS011;51070;52.236;-0.892;2023-03-20T12:42:13;1.10;;;0.60;;
62927;SDS011;51070;52.236;-0.892;2023-03-20T12:44:54;1.10;;;0.80;;
62927;SDS011;51070;52.236;-0.892;2023-03-20T12:58:38;0.80;;;0.80;;
62927;SDS011;51070;52.236;-0.892;2023-03-20T13:18:36;0.80;;;0.70;;
62927;SDS011;51070;52.236;-0.892;2023-03-20T13:20:48;2.20;;;0.60;;
62927;SDS011;51070;52.236;-0.892;2023-03-20T13:26:07;0.50;;;0.50;;
62927;SDS011;51070;52.236;-0.892;2023-03-20T13:32:09;0.90;;;0.70;;
62927;SDS011;51070;52.236;-0.892;2023-03-20T13:35:03;0.80;;;0.40;;
62927;SDS011;51070;52.236;-0.892;2023-03-20T13:37:34;1.00;;;0.70;;
62927;SDS011;51070;52.236;-0.892;2023-03-20T13:40:05;0.50;;;0.50;;
62927;SDS011;51070;52.236;-0.892;2023-03-20T13:45:50;1.00;;;0.50;;
62927;SDS011;51070;52.236;-0.892;2023-03-20T13:48:36;0.80;;;0.50;;
62927;SDS011;51070;52.236;-0.892;2023-03-20T13:51:09;0.50;;;0.50;;
62927;SDS011;51070;52.236;-0.892;2023-03-20T13:53:48;0.70;;;0.60;;
62927;SDS011;51070;52.236;-0.892;2023-03-20T14:02:02;0.80;;;0.40;;
62927;SDS011;51070;52.236;-0.892;2023-03-20T14:04:31;1.10;;;0.50;;
62927;SDS011;51070;52.236;-0.892;2023-03-20T14:06:58;1.50;;;0.40;;
62927;SDS011;51070;52.236;-0.892;2023-03-20T14:09:28;0.70;;;0.60;;
62927;SDS011;51070;52.236;-0.892;2023-03-20T14:12:03;0.50;;;0.50;;
62927;SDS011;51070;52.236;-0.892;2023-03-20T14:14:31;1.10;;;0.60;;
62927;SDS011;51070;52.236;-0.892;2023-03-20T14:17:15;1.10;;;0.50;;
62927;SDS011;51070;52.236;-0.892;2023-03-20T14:19:44;0.90;;;0.50;;
62927;SDS011;51070;52.236;-0.892;2023-03-20T14:22:14;0.90;;;0.40;;
62927;SDS011;51070;52.236;-0.892;2023-03-20T14:24:44;0.50;;;0.50;;
62927;SDS011;51070;52.236;-0.892;2023-03-20T14:27:21;0.60;;;0.50;;
62927;SDS011;51070;52.236;-0.892;2023-03-20T14:29:49;1.90;;;0.60;;
62927;SDS011;51070;52.236;-0.892;2023-03-20T14:34:45;0.70;;;0.40;;
62927;SDS011;51070;52.236;-0.892;2023-03-20T14:37:27;1.10;;;0.60;;
62927;SDS011;51070;52.236;-0.892;2023-03-20T14:40:00;1.10;;;0.70;;
62927;SDS011;51070;52.236;-0.892;2023-03-20T14:42:39;0.60;;;0.60;;
62927;SDS011;51070;52.236;-0.892;2023-03-20T14:50:31;1.50;;;0.60;;
62927;SDS011;51070;52.236;-0.892;2023-03-20T14:53:21;1.20;;;0.90;;
62927;SDS011;51070;52.236;-0.892;2023-03-20T15:01:05;1.40;;;0.90;;
62927;SDS011;51070;52.236;-0.892;2023-03-20T15:07:17;1.60;;;0.90;;
62927;SDS011;51070;52.236;-0.892;2023-03-20T15:10:10;1.80;;;0.70;;
62927;SDS011;51070;52.236;-0.892;2023-03-20T15:15:28;1.50;;;1.30;;
62927;SDS011;51070;52.236;-0.892;2023-03-20T15:18:09;1.50;;;0.90;;
62927;SDS011;51070;52.236;-0.892;2023-03-20T15:20:57;1.30;;;1.00;;
62927;SDS011;51070;52.236;-0.892;2023-03-20T15:23:23;1.30;;;1.10;;
62927;SDS011;51070;52.236;-0.892;2023-03-20T15:26:05;2.20;;;0.90;;
62927;SDS011;51070;52.236;-0.892;2023-03-20T15:28:37;4.40;;;1.20;;
62927;SDS011;51070;52.236;-0.892;2023-03-20T15:34:13;1.60;;;0.80;;
62927;SDS011;51070;52.236;-0.892;2023-03-20T15:36:57;1.00;;;0.80;;
62927;SDS011;51070;52.236;-0.892;2023-03-20T15:39:46;1.10;;;0.70;;
62927;SDS011;51070;52.236;-0.892;2023-03-20T15:42:16;1.50;;;0.70;;
62927;SDS011;51070;52.236;-0.892;2023-03-20T15:44:51;1.00;;;0.90;;
62927;SDS011;51070;52.236;-0.892;2023-03-20T15:47:20;1.10;;;0.70;;
62927;SDS011;51070;52.236;-0.892;2023-03-20T15:49:54;1.30;;;0.90;;
62927;SDS011;51070;52.236;-0.892;2023-03-20T15:52:30;1.60;;;0.90;;
62927;SDS011;51070;52.236;-0.892;2023-03-20T15:54:58;0.70;;;0.70;;
62927;SDS011;51070;52.236;-0.892;2023-03-20T15:57:41;0.60;;;0.60;;
62927;SDS011;51070;52.236;-0.892;2023-03-20T16:00:16;0.70;;;0.60;;
62927;SDS011;51070;52.236;-0.892;2023-03-20T16:02:54;1.00;;;0.80;;
62927;SDS011;51070;52.236;-0.892;2023-03-20T16:05:25;1.10;;;0.60;;
62927;SDS011;51070;52.236;-0.892;2023-03-20T16:07:56;1.40;;;0.80;;
62927;SDS011;51070;52.236;-0.892;2023-03-20T16:10:35;1.30;;;0.70;;
62927;SDS011;51070;52.236;-0.892;2023-03-20T16:13:14;0.50;;;0.50;;
62927;SDS011;51070;52.236;-0.892;2023-03-20T16:15:43;1.10;;;0.80;;
62927;SDS011;51070;52.236;-0.892;2023-03-20T16:18:12;1.20;;;0.90;;
62927;SDS011;51070;52.236;-0.892;2023-03-20T16:20:41;1.00;;;0.80;;
62927;SDS011;51070;52.236;-0.892;2023-03-20T16:23:13;1.10;;;0.80;;
62927;SDS011;51070;52.236;-0.892;2023-03-20T16:25:50;1.10;;;1.00;;
62927;SDS011;51070;52.236;-0.892;2023-03-20T16:28:24;1.00;;;0.90;;
62927;SDS011;51070;52.236;-0.892;2023-03-20T16:30:51;1.00;;;0.90;;
62927;SDS011;51070;52.236;-0.892;2023-03-20T16:33:16;0.70;;;0.70;;
62927;SDS011;51070;52.236;-0.892;2023-03-20T16:35:51;1.20;;;1.10;;
62927;SDS011;51070;52.236;-0.892;2023-03-20T16:38:26;0.90;;;0.90;;
62927;SDS011;51070;52.236;-0.892;2023-03-20T16:41:13;0.80;;;0.80;;
62927;SDS011;51070;52.236;-0.892;2023-03-20T16:43:54;1.20;;;1.00;;
62927;SDS011;51070;52.236;-0.892;2023-03-20T16:46:24;1.30;;;1.20;;
62927;SDS011;51070;52.236;-0.892;2023-03-20T16:49:01;1.90;;;1.20;;
62927;SDS011;51070;52.236;-0.892;2023-03-20T16:51:58;1.20;;;0.90;;
62927;SDS011;51070;52.236;-0.892;2023-03-20T16:54:29;1.30;;;1.20;;
62927;SDS011;51070;52.236;-0.892;2023-03-20T16:56:57;1.20;;;1.10;;
62927;SDS011;51070;52.236;-0.892;2023-03-20T16:59:24;1.70;;;1.30;;
62927;SDS011;51070;52.236;-0.892;2023-03-20T17:01:50;1.60;;;1.40;;
62927;SDS011;51070;52.236;-0.892;2023-03-20T17:04:34;1.50;;;1.30;;
62927;SDS011;51070;52.236;-0.892;2023-03-20T17:07:11;1.20;;;1.10;;
62927;SDS011;51070;52.236;-0.892;2023-03-20T17:09:57;1.90;;;1.30;;
62927;SDS011;51070;52.236;-0.892;2023-03-20T17:12:24;1.90;;;1.50;;
62927;SDS011;51070;52.236;-0.892;2023-03-20T17:14:52;1.80;;;1.20;;
62927;SDS011;51070;52.236;-0.892;2023-03-20T17:17:18;1.30;;;1.10;;
62927;SDS011;51070;52.236;-0.892;2023-03-20T17:19:46;2.20;;;1.10;;
62927;SDS011;51070;52.236;-0.892;2023-03-20T17:22:32;2.70;;;1.10;;
62927;SDS011;51070;52.236;-0.892;2023-03-20T17:24:59;1.10;;;1.00;;
62927;SDS011;51070;52.236;-0.892;2023-03-20T17:27:25;2.40;;;1.10;;
62927;SDS011;51070;52.236;-0.892;2023-03-20T17:29:51;1.30;;;0.90;;
62927;SDS011;51070;52.236;-0.892;2023-03-20T17:32:18;1.20;;;0.90;;
62927;SDS011;51070;52.236;-0.892;2023-03-20T17:34:47;1.60;;;1.00;;
62927;SDS011;51070;52.236;-0.892;2023-03-20T17:37:14;1.20;;;1.10;;
62927;SDS011;51070;52.236;-0.892;2023-03-20T17:39:46;1.70;;;1.00;;